sensor_id;sensor_type;location;lat;lon;timestamp;pressure;altitude;pressure_sealevel;temperature;humidity
21185;BME280;18176;49.502;11.754;2023-05-09T00:02:00;97377.50;;;19.49;42.93
21185;BME280;18176;49.502;11.754;2023-05-09T00:06:01;97372.91;;;19.55;43.18
21185;BME280;18176;49.502;11.754;2023-05-09T00:10:02;97389.28;;;19.64;43.03
21185;BME280;18176;49.502;11.754;2023-05-09T00:14:03;97375.84;;;19.58;43.20
21185;BME280;18176;49.502;11.754;2023-05-09T00:18:08;97381.56;;;19.47;43.36
21185;BME280;18176;49.502;11.754;2023-05-09T00:22:08;97370.75;;;19.57;43.01
21185;BME280;18176;49.502;11.754;2023-05-09T00:26:09;97369.19;;;19.41;43.72
21185;BME280;18176;49.502;11.754;2023-05-09T00:30:12;97369.25;;;19.36;43.89
21185;BME280;18176;49.502;11.754;2023-05-09T00:34:16;97375.16;;;19.38;43.80
21185;BME280;18176;49.502;11.754;2023-05-09T00:38:16;97370.03;;;19.26;44.13
21185;BME280;18176;49.502;11.754;2023-05-09T00:42:17;97365.50;;;19.17;43.97
21185;BME280;18176;49.502;11.754;2023-05-09T00:46:18;97366.03;;;19.24;44.23
21185;BME280;18176;49.502;11.754;2023-05-09T00:50:23;97359.09;;;19.13;44.23
21185;BME280;18176;49.502;11.754;2023-05-09T00:54:24;97371.44;;;19.09;44.62
21185;BME280;18176;49.502;11.754;2023-05-09T00:58:26;97367.97;;;19.08;44.48
21185;BME280;18176;49.502;11.754;2023-05-09T01:02:27;97371.47;;;19.04;44.59
21185;BME280;18176;49.502;11.754;2023-05-09T01:06:37;97355.34;;;19.04;44.54
21185;BME280;18176;49.502;11.754;2023-05-09T01:11:00;97343.28;;;18.96;44.83
21185;BME280;18176;49.502;11.754;2023-05-09T01:15:11;97343.56;;;18.89;45.14
21185;BME280;18176;49.502;11.754;2023-05-09T01:19:51;97329.63;;;18.67;45.02
21185;BME280;18176;49.502;11.754;2023-05-09T01:24:24;97342.53;;;18.65;45.25
21185;BME280;18176;49.502;11.754;2023-05-09T01:28:55;97339.88;;;18.50;46.14
21185;BME280;18176;49.502;11.754;2023-05-09T01:33:06;97345.75;;;18.37;46.11
21185;BME280;18176;49.502;11.754;2023-05-09T01:37:10;97336.63;;;18.28;46.46
21185;BME280;18176;49.502;11.754;2023-05-09T01:41:14;97337.72;;;18.32;46.17
21185;BME280;18176;49.502;11.754;2023-05-09T01:45:18;97337.19;;;18.45;46.00
21185;BME280;18176;49.502;11.754;2023-05-09T01:49:22;97344.41;;;18.40;46.51
21185;BME280;18176;49.502;11.754;2023-05-09T01:53:26;97341.19;;;18.28;46.29
21185;BME280;18176;49.502;11.754;2023-05-09T01:57:30;97338.25;;;18.29;46.85
21185;BME280;18176;49.502;11.754;2023-05-09T02:01:31;97332.06;;;18.23;46.63
21185;BME280;18176;49.502;11.754;2023-05-09T02:05:36;97336.38;;;18.30;46.79
21185;BME280;18176;49.502;11.754;2023-05-09T02:09:38;97333.44;;;18.21;46.70
21185;BME280;18176;49.502;11.754;2023-05-09T02:13:39;97336.59;;;18.03;47.27
21185;BME280;18176;49.502;11.754;2023-05-09T02:17:40;97330.19;;;18.24;47.03
21185;BME280;18176;49.502;11.754;2023-05-09T02:21:44;97321.59;;;18.22;47.50
21185;BME280;18176;49.502;11.754;2023-05-09T02:25:46;97323.22;;;18.13;48.06
21185;BME280;18176;49.502;11.754;2023-05-09T02:29:50;97311.16;;;18.10;46.80
21185;BME280;18176;49.502;11.754;2023-05-09T02:33:55;97321.06;;;18.15;47.21
21185;BME280;18176;49.502;11.754;2023-05-09T02:37:59;97322.97;;;18.09;46.79
21185;BME280;18176;49.502;11.754;2023-05-09T02:42:06;97303.88;;;17.81;46.65
21185;BME280;18176;49.502;11.754;2023-05-09T02:46:07;97328.56;;;17.93;46.89
21185;BME280;18176;49.502;11.754;2023-05-09T02:50:10;97323.72;;;17.80;47.32
21185;BME280;18176;49.502;11.754;2023-05-09T02:54:14;97319.41;;;17.59;47.46
21185;BME280;18176;49.502;11.754;2023-05-09T02:58:15;97314.50;;;17.50;47.62
21185;BME280;18176;49.502;11.754;2023-05-09T03:02:16;97304.31;;;17.47;47.89
21185;BME280;18176;49.502;11.754;2023-05-09T03:06:18;97310.16;;;17.24;48.96
21185;BME280;18176;49.502;11.754;2023-05-09T03:10:23;97306.34;;;17.15;49.59
21185;BME280;18176;49.502;11.754;2023-05-09T03:14:24;97293.47;;;17.02;49.36
21185;BME280;18176;49.502;11.754;2023-05-09T03:18:25;97293.97;;;16.99;49.18
21185;BME280;18176;49.502;11.754;2023-05-09T03:22:28;97290.22;;;16.95;48.63
21185;BME280;18176;49.502;11.754;2023-05-09T03:26:35;97296.88;;;16.82;48.18
21185;BME280;18176;49.502;11.754;2023-05-09T03:30:36;97292.59;;;16.87;47.71
21185;BME280;18176;49.502;11.754;2023-05-09T03:34:43;97296.38;;;16.96;47.19
21185;BME280;18176;49.502;11.754;2023-05-09T03:38:44;97298.78;;;16.97;46.78
21185;BME280;18176;49.502;11.754;2023-05-09T03:42:48;97295.03;;;16.93;46.40
21185;BME280;18176;49.502;11.754;2023-05-09T03:46:49;97297.44;;;16.95;46.61
21185;BME280;18176;49.502;11.754;2023-05-09T03:50:50;97297.72;;;16.93;46.32
21185;BME280;18176;49.502;11.754;2023-05-09T03:54:54;97296.06;;;16.82;46.72
21185;BME280;18176;49.502;11.754;2023-05-09T03:58:57;97305.38;;;16.74;47.20
21185;BME280;18176;49.502;11.754;2023-05-09T04:02:58;97300.13;;;16.90;46.81
21185;BME280;18176;49.502;11.754;2023-05-09T04:07:05;97295.28;;;16.87;46.92
21185;BME280;18176;49.502;11.754;2023-05-09T04:11:07;97299.81;;;16.86;46.25
21185;BME280;18176;49.502;11.754;2023-05-09T04:15:15;97300.97;;;17.05;45.73
21185;BME280;18176;49.502;11.754;2023-05-09T04:19:16;97301.78;;;17.11;45.45
21185;BME280;18176;49.502;11.754;2023-05-09T04:23:17;97298.59;;;17.14;45.05
21185;BME280;18176;49.502;11.754;2023-05-09T04:27:21;97299.94;;;17.16;44.80
21185;BME280;18176;49.502;11.754;2023-05-09T04:31:25;97297.09;;;17.38;44.55
21185;BME280;18176;49.502;11.754;2023-05-09T04:35:26;97300.03;;;17.41;43.87
21185;BME280;18176;49.502;11.754;2023-05-09T04:39:27;97314.59;;;17.61;43.79
21185;BME280;18176;49.502;11.754;2023-05-09T04:43:34;97317.84;;;17.73;43.78
21185;BME280;18176;49.502;11.754;2023-05-09T04:47:39;97310.31;;;17.75;43.95
21185;BME280;18176;49.502;11.754;2023-05-09T04:51:40;97309.25;;;17.81;44.41
21185;BME280;18176;49.502;11.754;2023-05-09T04:55:40;97310.84;;;17.67;44.87
21185;BME280;18176;49.502;11.754;2023-05-09T04:59:41;97296.88;;;17.60;44.88
21185;BME280;18176;49.502;11.754;2023-05-09T05:03:46;97303.31;;;17.53;44.83
21185;BME280;18176;49.502;11.754;2023-05-09T05:07:47;97303.31;;;17.53;44.22
21185;BME280;18176;49.502;11.754;2023-05-09T05:11:53;97309.69;;;17.47;44.56
21185;BME280;18176;49.502;11.754;2023-05-09T05:16:00;97300.59;;;17.48;44.12
21185;BME280;18176;49.502;11.754;2023-05-09T05:20:06;97301.63;;;17.37;43.32
21185;BME280;18176;49.502;11.754;2023-05-09T05:24:11;97295.50;;;17.52;43.21
21185;BME280;18176;49.502;11.754;2023-05-09T05:28:12;97292.84;;;17.57;43.64
21185;BME280;18176;49.502;11.754;2023-05-09T05:32:13;97300.53;;;17.38;43.53
21185;BME280;18176;49.502;11.754;2023-05-09T05:36:17;97293.06;;;17.40;43.09
21185;BME280;18176;49.502;11.754;2023-05-09T05:40:18;97294.72;;;17.51;42.50
21185;BME280;18176;49.502;11.754;2023-05-09T05:44:21;97294.19;;;17.54;43.32
21185;BME280;18176;49.502;11.754;2023-05-09T05:48:23;97300.03;;;17.41;42.89
21185;BME280;18176;49.502;11.754;2023-05-09T05:52:27;97293.06;;;17.35;43.19
21185;BME280;18176;49.502;11.754;2023-05-09T05:56:29;97289.88;;;17.48;43.05
21185;BME280;18176;49.502;11.754;2023-05-09T06:00:31;97291.03;;;17.73;42.76
21185;BME280;18176;49.502;11.754;2023-05-09T06:04:35;97287.81;;;17.81;42.41
21185;BME280;18176;49.502;11.754;2023-05-09T06:08:38;97279.22;;;17.79;42.44
21185;BME280;18176;49.502;11.754;2023-05-09T06:12:39;97273.63;;;17.95;42.29
21185;BME280;18176;49.502;11.754;2023-05-09T06:16:40;97277.34;;;18.14;41.95
21185;BME280;18176;49.502;11.754;2023-05-09T06:20:41;97280.81;;;18.35;41.89
21185;BME280;18176;49.502;11.754;2023-05-09T06:24:45;97272.78;;;18.45;41.71
21185;BME280;18176;49.502;11.754;2023-05-09T06:28:46;97267.94;;;18.62;41.25
21185;BME280;18176;49.502;11.754;2023-05-09T06:32:47;97265.81;;;18.34;41.70
21185;BME280;18176;49.502;11.754;2023-05-09T06:36:48;97262.56;;;18.52;41.95
21185;BME280;18176;49.502;11.754;2023-05-09T06:40:53;97244.84;;;18.51;41.87
21185;BME280;18176;49.502;11.754;2023-05-09T06:44:54;97243.22;;;18.60;41.36
21185;BME280;18176;49.502;11.754;2023-05-09T06:48:54;97244.28;;;18.69;41.50
21185;BME280;18176;49.502;11.754;2023-05-09T06:52:55;97246.13;;;18.79;41.22
21185;BME280;18176;49.502;11.754;2023-05-09T06:56:59;97240.41;;;18.96;40.99
21185;BME280;18176;49.502;11.754;2023-05-09T07:01:00;97226.44;;;18.99;40.93
21185;BME280;18176;49.502;11.754;2023-05-09T07:05:01;97220.97;;;19.14;41.17
21185;BME280;18176;49.502;11.754;2023-05-09T07:09:04;97215.53;;;19.34;41.29
21185;BME280;18176;49.502;11.754;2023-05-09T07:13:11;97212.19;;;19.52;40.14
21185;BME280;18176;49.502;11.754;2023-05-09T07:17:13;97212.53;;;19.40;40.40
21185;BME280;18176;49.502;11.754;2023-05-09T07:21:20;97201.94;;;19.59;40.10
21185;BME280;18176;49.502;11.754;2023-05-09T07:25:22;97189.44;;;19.73;39.98
21185;BME280;18176;49.502;11.754;2023-05-09T07:29:26;97186.91;;;19.53;40.77
21185;BME280;18176;49.502;11.754;2023-05-09T07:33:27;97182.97;;;19.40;40.18
21185;BME280;18176;49.502;11.754;2023-05-09T07:37:29;97183.78;;;19.75;39.24
21185;BME280;18176;49.502;11.754;2023-05-09T07:41:31;97180.53;;;20.06;39.58
21185;BME280;18176;49.502;11.754;2023-05-09T07:45:35;97173.38;;;20.73;39.04
21185;BME280;18176;49.502;11.754;2023-05-09T07:49:37;97169.09;;;20.72;38.03
21185;BME280;18176;49.502;11.754;2023-05-09T07:53:40;97162.06;;;21.50;37.04
21185;BME280;18176;49.502;11.754;2023-05-09T07:57:41;97154.09;;;22.37;35.60
21185;BME280;18176;49.502;11.754;2023-05-09T08:01:47;97156.66;;;24.12;33.41
21185;BME280;18176;49.502;11.754;2023-05-09T08:05:52;97144.75;;;23.69;26.59
21185;BME280;18176;49.502;11.754;2023-05-09T08:09:52;97132.44;;;24.07;26.71
21185;BME280;18176;49.502;11.754;2023-05-09T08:13:53;97131.81;;;25.74;26.29
21185;BME280;18176;49.502;11.754;2023-05-09T08:17:58;97131.81;;;25.40;24.36
21185;BME280;18176;49.502;11.754;2023-05-09T08:22:00;97125.41;;;25.19;24.60
21185;BME280;18176;49.502;11.754;2023-05-09T08:26:01;97133.22;;;25.12;25.17
21185;BME280;18176;49.502;11.754;2023-05-09T08:30:04;97129.09;;;25.40;24.32
21185;BME280;18176;49.502;11.754;2023-05-09T08:34:09;97113.75;;;27.00;23.78
21185;BME280;18176;49.502;11.754;2023-05-09T08:38:10;97105.38;;;28.12;23.39
21185;BME280;18176;49.502;11.754;2023-05-09T08:42:12;97101.41;;;27.24;23.62
21185;BME280;18176;49.502;11.754;2023-05-09T08:46:27;97093.44;;;27.19;23.07
21185;BME280;18176;49.502;11.754;2023-05-09T08:50:36;97100.72;;;26.85;24.47
21185;BME280;18176;49.502;11.754;2023-05-09T08:54:41;97074.28;;;28.13;23.43
21185;BME280;18176;49.502;11.754;2023-05-09T08:58:43;97065.47;;;27.96;23.25
21185;BME280;18176;49.502;11.754;2023-05-09T09:02:48;97070.38;;;26.45;24.32
21185;BME280;18176;49.502;11.754;2023-05-09T09:06:56;97069.63;;;27.69;23.45
21185;BME280;18176;49.502;11.754;2023-05-09T09:10:58;97071.00;;;26.80;22.76
21185;BME280;18176;49.502;11.754;2023-05-09T09:15:05;97040.81;;;27.14;23.29
21185;BME280;18176;49.502;11.754;2023-05-09T09:19:16;97049.97;;;28.08;22.37
21185;BME280;18176;49.502;11.754;2023-05-09T09:23:25;97042.16;;;27.62;22.54
21185;BME280;18176;49.502;11.754;2023-05-09T09:27:28;97036.41;;;27.75;22.56
21185;BME280;18176;49.502;11.754;2023-05-09T09:31:32;97026.22;;;27.40;22.76
21185;BME280;18176;49.502;11.754;2023-05-09T09:35:40;97032.66;;;27.80;21.19
21185;BME280;18176;49.502;11.754;2023-05-09T09:39:56;97028.03;;;26.94;21.84
21185;BME280;18176;49.502;11.754;2023-05-09T09:43:58;97018.66;;;27.04;22.65
21185;BME280;18176;49.502;11.754;2023-05-09T09:48:06;97006.69;;;27.95;21.45
21185;BME280;18176;49.502;11.754;2023-05-09T09:52:09;97006.34;;;28.57;20.96
21185;BME280;18176;49.502;11.754;2023-05-09T09:56:13;97000.97;;;29.67;19.70
21185;BME280;18176;49.502;11.754;2023-05-09T10:00:24;97010.97;;;28.80;21.27
21185;BME280;18176;49.502;11.754;2023-05-09T10:04:30;96985.72;;;30.13;18.83
21185;BME280;18176;49.502;11.754;2023-05-09T10:08:31;96995.97;;;27.65;19.88
21185;BME280;18176;49.502;11.754;2023-05-09T10:12:36;96995.69;;;28.64;19.31
21185;BME280;18176;49.502;11.754;2023-05-09T10:16:38;96989.88;;;29.05;19.33
21185;BME280;18176;49.502;11.754;2023-05-09T10:20:42;96978.03;;;30.19;18.66
21185;BME280;18176;49.502;11.754;2023-05-09T10:24:50;96972.72;;;31.34;18.39
21185;BME280;18176;49.502;11.754;2023-05-09T10:29:01;96961.66;;;31.27;17.82
21185;BME280;18176;49.502;11.754;2023-05-09T10:33:11;96945.22;;;32.43;18.36
21185;BME280;18176;49.502;11.754;2023-05-09T10:37:16;96931.44;;;33.33;18.33
21185;BME280;18176;49.502;11.754;2023-05-09T10:41:23;96929.13;;;32.42;17.82
21185;BME280;18176;49.502;11.754;2023-05-09T10:45:28;96923.09;;;32.55;18.18
21185;BME280;18176;49.502;11.754;2023-05-09T10:49:30;96918.44;;;33.26;18.47
21185;BME280;18176;49.502;11.754;2023-05-09T10:53:44;96904.75;;;34.21;17.47
21185;BME280;18176;49.502;11.754;2023-05-09T10:57:52;96895.41;;;35.29;16.43
21185;BME280;18176;49.502;11.754;2023-05-09T11:02:02;96899.31;;;36.41;15.83
21185;BME280;18176;49.502;11.754;2023-05-09T11:06:07;96894.44;;;34.76;16.28
21185;BME280;18176;49.502;11.754;2023-05-09T11:10:10;96882.78;;;35.10;16.41
21185;BME280;18176;49.502;11.754;2023-05-09T11:14:37;96874.81;;;34.91;16.60
21185;BME280;18176;49.502;11.754;2023-05-09T11:18:54;96882.69;;;34.89;16.23
21185;BME280;18176;49.502;11.754;2023-05-09T11:22:58;96865.50;;;35.49;15.92
21185;BME280;18176;49.502;11.754;2023-05-09T11:27:01;96852.13;;;35.65;15.84
21185;BME280;18176;49.502;11.754;2023-05-09T11:31:10;96849.75;;;35.95;16.36
21185;BME280;18176;49.502;11.754;2023-05-09T11:35:18;96830.56;;;36.78;14.83
21185;BME280;18176;49.502;11.754;2023-05-09T11:39:24;96819.13;;;34.26;15.13
21185;BME280;18176;49.502;11.754;2023-05-09T11:43:28;96828.38;;;34.83;14.88
21185;BME280;18176;49.502;11.754;2023-05-09T11:47:30;96828.09;;;33.14;16.07
21185;BME280;18176;49.502;11.754;2023-05-09T11:51:38;96803.88;;;34.46;15.81
21185;BME280;18176;49.502;11.754;2023-05-09T11:55:42;96806.28;;;36.41;15.66
21185;BME280;18176;49.502;11.754;2023-05-09T11:59:48;96794.63;;;35.74;14.68
21185;BME280;18176;49.502;11.754;2023-05-09T12:03:50;96776.47;;;34.88;15.47
21185;BME280;18176;49.502;11.754;2023-05-09T12:08:01;96788.34;;;34.03;15.46
21185;BME280;18176;49.502;11.754;2023-05-09T12:12:09;96766.69;;;35.15;15.47
21185;BME280;18176;49.502;11.754;2023-05-09T12:16:11;96768.13;;;33.70;14.46
21185;BME280;18176;49.502;11.754;2023-05-09T12:20:13;96759.44;;;33.61;14.77
21185;BME280;18176;49.502;11.754;2023-05-09T12:24:19;96756.81;;;34.93;14.01
21185;BME280;18176;49.502;11.754;2023-05-09T12:28:23;96750.31;;;36.44;13.60
21185;BME280;18176;49.502;11.754;2023-05-09T12:32:26;96746.53;;;34.58;14.45
21185;BME280;18176;49.502;11.754;2023-05-09T12:36:34;96745.03;;;35.03;14.06
21185;BME280;18176;49.502;11.754;2023-05-09T12:40:38;96732.25;;;34.25;14.08
21185;BME280;18176;49.502;11.754;2023-05-09T12:44:39;96731.47;;;34.31;14.33
21185;BME280;18176;49.502;11.754;2023-05-09T12:48:46;96719.72;;;34.45;14.98
21185;BME280;18176;49.502;11.754;2023-05-09T12:52:50;96713.16;;;35.52;13.84
21185;BME280;18176;49.502;11.754;2023-05-09T12:57:03;96698.56;;;35.62;14.12
21185;BME280;18176;49.502;11.754;2023-05-09T13:01:04;96697.00;;;35.25;13.79
21185;BME280;18176;49.502;11.754;2023-05-09T13:05:09;96697.03;;;34.97;13.98
21185;BME280;18176;49.502;11.754;2023-05-09T13:09:13;96680.47;;;34.58;14.49
21185;BME280;18176;49.502;11.754;2023-05-09T13:13:23;96686.78;;;34.66;14.02
21185;BME280;18176;49.502;11.754;2023-05-09T13:17:26;96678.94;;;35.17;14.62
21185;BME280;18176;49.502;11.754;2023-05-09T13:21:27;96671.81;;;33.53;15.24
21185;BME280;18176;49.502;11.754;2023-05-09T13:25:28;96652.84;;;34.13;15.06
21185;BME280;18176;49.502;11.754;2023-05-09T13:29:30;96654.91;;;34.62;14.63
21185;BME280;18176;49.502;11.754;2023-05-09T13:33:31;96637.34;;;33.01;16.00
21185;BME280;18176;49.502;11.754;2023-05-09T13:37:31;96635.66;;;34.54;15.90
21185;BME280;18176;49.502;11.754;2023-05-09T13:41:31;96634.09;;;34.53;15.08
21185;BME280;18176;49.502;11.754;2023-05-09T13:45:36;96626.84;;;33.96;15.53
21185;BME280;18176;49.502;11.754;2023-05-09T13:49:37;96614.44;;;34.62;14.77
21185;BME280;18176;49.502;11.754;2023-05-09T13:53:38;96612.00;;;35.20;14.48
21185;BME280;18176;49.502;11.754;2023-05-09T13:57:41;96615.97;;;34.56;14.45
21185;BME280;18176;49.502;11.754;2023-05-09T14:01:45;96603.31;;;35.33;14.43
21185;BME280;18176;49.502;11.754;2023-05-09T14:05:47;96596.28;;;34.19;15.09
21185;BME280;18176;49.502;11.754;2023-05-09T14:09:49;96601.84;;;34.54;14.88
21185;BME280;18176;49.502;11.754;2023-05-09T14:14:04;96589.63;;;34.23;14.95
21185;BME280;18176;49.502;11.754;2023-05-09T14:18:07;96590.44;;;33.34;15.70
21185;BME280;18176;49.502;11.754;2023-05-09T14:22:12;96589.09;;;33.68;15.15
21185;BME280;18176;49.502;11.754;2023-05-09T14:26:12;96579.78;;;35.07;14.36
21185;BME280;18176;49.502;11.754;2023-05-09T14:30:13;96565.09;;;35.49;13.99
21185;BME280;18176;49.502;11.754;2023-05-09T14:34:16;96558.44;;;35.43;14.34
21185;BME280;18176;49.502;11.754;2023-05-09T14:38:16;96548.66;;;36.07;14.21
21185;BME280;18176;49.502;11.754;2023-05-09T14:42:17;96555.22;;;35.62;14.26
21185;BME280;18176;49.502;11.754;2023-05-09T14:46:17;96542.25;;;36.21;13.77
21185;BME280;18176;49.502;11.754;2023-05-09T14:50:22;96542.84;;;36.49;13.73
21185;BME280;18176;49.502;11.754;2023-05-09T14:54:22;96537.41;;;35.77;13.93
21185;BME280;18176;49.502;11.754;2023-05-09T14:58:22;96535.34;;;34.84;14.48
21185;BME280;18176;49.502;11.754;2023-05-09T15:02:23;96528.59;;;35.16;14.67
21185;BME280;18176;49.502;11.754;2023-05-09T15:06:26;96526.00;;;33.07;15.30
21185;BME280;18176;49.502;11.754;2023-05-09T15:10:27;96511.44;;;34.21;15.10
21185;BME280;18176;49.502;11.754;2023-05-09T15:14:28;96508.59;;;34.91;14.75
21185;BME280;18176;49.502;11.754;2023-05-09T15:18:28;96507.47;;;34.36;14.88
21185;BME280;18176;49.502;11.754;2023-05-09T15:22:32;96493.34;;;34.27;14.84
21185;BME280;18176;49.502;11.754;2023-05-09T15:26:33;96494.13;;;34.10;15.03
21185;BME280;18176;49.502;11.754;2023-05-09T15:30:33;96480.63;;;33.38;15.78
21185;BME280;18176;49.502;11.754;2023-05-09T15:34:37;96455.59;;;34.52;14.95
21185;BME280;18176;49.502;11.754;2023-05-09T15:38:40;96468.16;;;33.61;16.27
21185;BME280;18176;49.502;11.754;2023-05-09T15:42:44;96455.59;;;34.24;15.97
21185;BME280;18176;49.502;11.754;2023-05-09T15:46:45;96438.31;;;33.63;17.01
21185;BME280;18176;49.502;11.754;2023-05-09T15:50:45;96437.53;;;33.87;16.71
21185;BME280;18176;49.502;11.754;2023-05-09T15:54:48;96446.00;;;33.15;17.61
21185;BME280;18176;49.502;11.754;2023-05-09T15:58:50;96441.72;;;32.46;17.88
21185;BME280;18176;49.502;11.754;2023-05-09T16:02:50;96435.91;;;32.58;18.61
21185;BME280;18176;49.502;11.754;2023-05-09T16:06:52;96434.75;;;32.01;18.88
21185;BME280;18176;49.502;11.754;2023-05-09T16:10:55;96421.31;;;31.89;19.03
21185;BME280;18176;49.502;11.754;2023-05-09T16:14:58;96426.25;;;31.73;19.15
21185;BME280;18176;49.502;11.754;2023-05-09T16:18:58;96418.34;;;31.61;19.48
21185;BME280;18176;49.502;11.754;2023-05-09T16:22:58;96408.53;;;31.60;20.20
21185;BME280;18176;49.502;11.754;2023-05-09T16:27:01;96407.25;;;31.47;20.42
21185;BME280;18176;49.502;11.754;2023-05-09T16:31:02;96395.50;;;31.46;20.12
21185;BME280;18176;49.502;11.754;2023-05-09T16:35:06;96397.69;;;31.34;20.88
21185;BME280;18176;49.502;11.754;2023-05-09T16:39:06;96372.84;;;30.79;20.73
21185;BME280;18176;49.502;11.754;2023-05-09T16:43:09;96393.91;;;30.75;21.50
21185;BME280;18176;49.502;11.754;2023-05-09T16:47:10;96389.75;;;30.55;21.98
21185;BME280;18176;49.502;11.754;2023-05-09T16:51:10;96387.28;;;31.43;21.06
21185;BME280;18176;49.502;11.754;2023-05-09T16:55:10;96370.28;;;31.27;21.44
21185;BME280;18176;49.502;11.754;2023-05-09T16:59:14;96366.66;;;31.56;21.31
21185;BME280;18176;49.502;11.754;2023-05-09T17:03:15;96375.63;;;30.49;22.30
21185;BME280;18176;49.502;11.754;2023-05-09T17:07:17;96370.28;;;29.55;23.43
21185;BME280;18176;49.502;11.754;2023-05-09T17:11:17;96360.81;;;29.49;23.27
21185;BME280;18176;49.502;11.754;2023-05-09T17:15:21;96370.72;;;29.35;23.56
21185;BME280;18176;49.502;11.754;2023-05-09T17:19:22;96367.47;;;28.87;24.63
21185;BME280;18176;49.502;11.754;2023-05-09T17:23:23;96356.19;;;27.97;25.24
21185;BME280;18176;49.502;11.754;2023-05-09T17:27:23;96359.31;;;27.33;25.97
21185;BME280;18176;49.502;11.754;2023-05-09T17:31:26;96348.22;;;27.10;26.50
21185;BME280;18176;49.502;11.754;2023-05-09T17:35:27;96366.25;;;26.59;27.08
21185;BME280;18176;49.502;11.754;2023-05-09T17:39:28;96355.00;;;26.33;27.48
21185;BME280;18176;49.502;11.754;2023-05-09T17:43:28;96341.53;;;25.85;27.83
21185;BME280;18176;49.502;11.754;2023-05-09T17:47:31;96340.06;;;25.63;27.93
21185;BME280;18176;49.502;11.754;2023-05-09T17:51:33;96374.66;;;25.66;27.96
21185;BME280;18176;49.502;11.754;2023-05-09T17:55:34;96367.31;;;25.54;28.66
21185;BME280;18176;49.502;11.754;2023-05-09T17:59:34;96342.19;;;25.69;28.12
21185;BME280;18176;49.502;11.754;2023-05-09T18:03:39;96354.19;;;25.56;28.59
21185;BME280;18176;49.502;11.754;2023-05-09T18:07:40;96357.56;;;25.53;28.75
21185;BME280;18176;49.502;11.754;2023-05-09T18:11:40;96335.81;;;25.05;29.36
21185;BME280;18176;49.502;11.754;2023-05-09T18:15:41;96343.25;;;24.84;29.76
21185;BME280;18176;49.502;11.754;2023-05-09T18:19:44;96306.53;;;24.54;29.90
21185;BME280;18176;49.502;11.754;2023-05-09T18:23:45;96344.72;;;24.61;30.19
21185;BME280;18176;49.502;11.754;2023-05-09T18:27:46;96347.81;;;24.51;30.75
21185;BME280;18176;49.502;11.754;2023-05-09T18:31:46;96350.28;;;24.43;30.97
21185;BME280;18176;49.502;11.754;2023-05-09T18:35:49;96315.19;;;24.14;31.05
21185;BME280;18176;49.502;11.754;2023-05-09T18:39:50;96345.59;;;24.11;31.76
21185;BME280;18176;49.502;11.754;2023-05-09T18:43:50;96336.22;;;24.09;32.03
21185;BME280;18176;49.502;11.754;2023-05-09T18:47:52;96339.84;;;24.13;32.30
21185;BME280;18176;49.502;11.754;2023-05-09T18:51:55;96309.06;;;23.76;32.50
21185;BME280;18176;49.502;11.754;2023-05-09T18:55:56;96323.00;;;23.37;33.71
21185;BME280;18176;49.502;11.754;2023-05-09T18:59:56;96330.97;;;23.25;33.77
21185;BME280;18176;49.502;11.754;2023-05-09T19:03:57;96339.09;;;23.16;34.32
21185;BME280;18176;49.502;11.754;2023-05-09T19:08:01;96326.00;;;22.97;34.20
21185;BME280;18176;49.502;11.754;2023-05-09T19:12:02;96315.53;;;22.87;34.38
21185;BME280;18176;49.502;11.754;2023-05-09T19:16:03;96266.50;;;22.43;34.73
21185;BME280;18176;49.502;11.754;2023-05-09T19:20:05;96313.66;;;22.71;35.25
21185;BME280;18176;49.502;11.754;2023-05-09T19:24:08;96274.66;;;22.25;35.88
21185;BME280;18176;49.502;11.754;2023-05-09T19:28:08;96340.03;;;22.31;36.86
21185;BME280;18176;49.502;11.754;2023-05-09T19:32:10;96320.22;;;22.10;36.10
21185;BME280;18176;49.502;11.754;2023-05-09T19:36:11;96312.59;;;21.86;36.74
21185;BME280;18176;49.502;11.754;2023-05-09T19:40:14;96310.78;;;21.64;36.87
21185;BME280;18176;49.502;11.754;2023-05-09T19:44:15;96330.13;;;21.66;37.47
21185;BME280;18176;49.502;11.754;2023-05-09T19:48:15;96337.59;;;21.69;37.74
21185;BME280;18176;49.502;11.754;2023-05-09T19:52:15;96333.00;;;21.61;37.82
21185;BME280;18176;49.502;11.754;2023-05-09T19:56:18;96231.75;;;20.82;37.90
21185;BME280;18176;49.502;11.754;2023-05-09T20:00:19;96329.16;;;21.45;37.61
21185;BME280;18176;49.502;11.754;2023-05-09T20:04:21;96327.53;;;21.27;37.55
21185;BME280;18176;49.502;11.754;2023-05-09T20:08:21;96322.91;;;21.28;36.65
21185;BME280;18176;49.502;11.754;2023-05-09T20:12:24;96323.25;;;21.35;37.36
21185;BME280;18176;49.502;11.754;2023-05-09T20:16:26;96317.94;;;21.13;37.42
21185;BME280;18176;49.502;11.754;2023-05-09T20:20:27;96314.97;;;21.23;36.91
21185;BME280;18176;49.502;11.754;2023-05-09T20:24:28;96300.63;;;21.05;36.07
21185;BME280;18176;49.502;11.754;2023-05-09T20:28:31;96322.34;;;21.48;35.77
21185;BME280;18176;49.502;11.754;2023-05-09T20:32:33;96311.72;;;21.51;35.93
21185;BME280;18176;49.502;11.754;2023-05-09T20:36:34;96299.94;;;21.30;36.87
21185;BME280;18176;49.502;11.754;2023-05-09T20:40:34;96329.44;;;21.35;37.24
21185;BME280;18176;49.502;11.754;2023-05-09T20:44:38;96307.72;;;21.01;37.24
21185;BME280;18176;49.502;11.754;2023-05-09T20:48:38;96311.84;;;20.98;37.66
21185;BME280;18176;49.502;11.754;2023-05-09T20:52:39;96308.63;;;20.88;37.17
21185;BME280;18176;49.502;11.754;2023-05-09T20:56:39;96335.91;;;20.95;37.33
21185;BME280;18176;49.502;11.754;2023-05-09T21:00:43;96336.88;;;20.99;37.68
21185;BME280;18176;49.502;11.754;2023-05-09T21:04:44;96340.84;;;21.02;37.44
21185;BME280;18176;49.502;11.754;2023-05-09T21:08:48;96252.06;;;20.49;37.56
21185;BME280;18176;49.502;11.754;2023-05-09T21:12:58;96303.88;;;20.93;37.33